Terminal Aerodrome Forecast
Issued by NWS

Home | Current Version | Previous Version | Text Only | Print | Product List | Glossary On
Versions: 1 2 3 4 5 6 7 8 9 10 11 12 13 14 15 16 17 18
573
FTUS44 KLZK 221730
TAFHRO
TAF
KHRO 221730Z 2218/2318 26006KT P6SM BKN120
     FM230300 32008KT P6SM SCT040 BKN100
     FM231200 35003KT P6SM BKN050=

USA.gov is the U.S. government's official web portal to all federal, state and local government web resources and services.